sensor_id;sensor_type;location;lat;lon;timestamp;pressure;altitude;pressure_sealevel;temperature;humidity
52745;BME280;38637;49.984;20.426;2023-10-09T00:00:07;100245.72;;;6.08;78.90
52745;BME280;38637;49.984;20.426;2023-10-09T00:03:06;100242.84;;;6.03;79.03
52745;BME280;38637;49.984;20.426;2023-10-09T00:05:33;100244.69;;;6.03;79.23
52745;BME280;38637;49.984;20.426;2023-10-09T00:08:15;100251.16;;;6.02;79.48
52745;BME280;38637;49.984;20.426;2023-10-09T00:10:51;100247.22;;;5.97;79.87
52745;BME280;38637;49.984;20.426;2023-10-09T00:13:26;100249.09;;;5.97;79.76
52745;BME280;38637;49.984;20.426;2023-10-09T00:16:04;100252.22;;;5.94;80.25
52745;BME280;38637;49.984;20.426;2023-10-09T00:18:40;100240.72;;;5.92;80.40
52745;BME280;38637;49.984;20.426;2023-10-09T00:21:14;100223.44;;;5.80;80.37
52745;BME280;38637;49.984;20.426;2023-10-09T00:23:40;100243.84;;;5.89;81.37
52745;BME280;38637;49.984;20.426;2023-10-09T00:26:09;100244.47;;;5.84;81.75
52745;BME280;38637;49.984;20.426;2023-10-09T00:28:39;100236.13;;;5.86;81.53
52745;BME280;38637;49.984;20.426;2023-10-09T00:31:13;100236.34;;;5.84;81.92
52745;BME280;38637;49.984;20.426;2023-10-09T00:33:44;100239.47;;;5.88;81.53
52745;BME280;38637;49.984;20.426;2023-10-09T00:36:10;100237.59;;;5.88;81.39
52745;BME280;38637;49.984;20.426;2023-10-09T00:38:37;100227.38;;;5.90;81.77
52745;BME280;38637;49.984;20.426;2023-10-09T00:41:10;100225.28;;;5.92;81.76
52745;BME280;38637;49.984;20.426;2023-10-09T00:43:37;100217.00;;;5.94;81.98
52745;BME280;38637;49.984;20.426;2023-10-09T00:46:04;100214.06;;;5.95;82.48
52745;BME280;38637;49.984;20.426;2023-10-09T00:48:51;100218.66;;;5.95;82.15
52745;BME280;38637;49.984;20.426;2023-10-09T00:51:17;100214.06;;;5.95;82.40
52745;BME280;38637;49.984;20.426;2023-10-09T00:53:52;100204.44;;;5.99;82.15
52745;BME280;38637;49.984;20.426;2023-10-09T00:56:22;100210.50;;;6.02;82.02
52745;BME280;38637;49.984;20.426;2023-10-09T00:58:51;100207.38;;;6.05;82.00
52745;BME280;38637;49.984;20.426;2023-10-09T01:01:22;100185.69;;;5.98;81.63
52745;BME280;38637;49.984;20.426;2023-10-09T01:03:52;100200.06;;;6.05;81.67
52745;BME280;38637;49.984;20.426;2023-10-09T01:06:17;100206.75;;;6.09;81.83
52745;BME280;38637;49.984;20.426;2023-10-09T01:08:46;100205.47;;;6.12;81.66
52745;BME280;38637;49.984;20.426;2023-10-09T01:11:30;100211.09;;;6.17;81.90
52745;BME280;38637;49.984;20.426;2023-10-09T01:13:56;100202.53;;;6.20;81.67
52745;BME280;38637;49.984;20.426;2023-10-09T01:16:33;100178.53;;;6.24;81.89
52745;BME280;38637;49.984;20.426;2023-10-09T01:18:59;100169.38;;;6.25;81.46
52745;BME280;38637;49.984;20.426;2023-10-09T01:21:25;100172.06;;;6.31;81.65
52745;BME280;38637;49.984;20.426;2023-10-09T01:23:52;100167.84;;;6.35;81.35
52745;BME280;38637;49.984;20.426;2023-10-09T01:26:39;100163.66;;;6.39;81.45
52745;BME280;38637;49.984;20.426;2023-10-09T01:29:11;100159.09;;;6.40;81.84
52745;BME280;38637;49.984;20.426;2023-10-09T01:31:43;100145.28;;;6.41;81.99
52745;BME280;38637;49.984;20.426;2023-10-09T01:34:22;100141.75;;;6.41;81.98
52745;BME280;38637;49.984;20.426;2023-10-09T01:36:52;100131.38;;;6.31;81.71
52745;BME280;38637;49.984;20.426;2023-10-09T01:39:22;100136.13;;;6.36;81.31
52745;BME280;38637;49.984;20.426;2023-10-09T01:41:56;100128.44;;;6.33;81.15
52745;BME280;38637;49.984;20.426;2023-10-09T01:44:28;100128.84;;;6.30;80.70
52745;BME280;38637;49.984;20.426;2023-10-09T01:47:03;100112.41;;;6.25;80.80
52745;BME280;38637;49.984;20.426;2023-10-09T01:49:49;100113.88;;;6.20;80.66
52745;BME280;38637;49.984;20.426;2023-10-09T01:52:15;100131.41;;;6.18;80.91
52745;BME280;38637;49.984;20.426;2023-10-09T01:54:41;100133.09;;;6.19;81.25
52745;BME280;38637;49.984;20.426;2023-10-09T01:57:08;100138.28;;;6.20;81.18
52745;BME280;38637;49.984;20.426;2023-10-09T01:59:41;100137.44;;;6.20;80.99
52745;BME280;38637;49.984;20.426;2023-10-09T02:02:13;100127.47;;;6.14;80.67
52745;BME280;38637;49.984;20.426;2023-10-09T02:04:54;100118.53;;;6.07;80.82
52745;BME280;38637;49.984;20.426;2023-10-09T02:07:30;100119.97;;;6.03;80.72
52745;BME280;38637;49.984;20.426;2023-10-09T02:10:05;100134.63;;;5.95;81.54
52745;BME280;38637;49.984;20.426;2023-10-09T02:12:36;100154.19;;;5.90;81.97
52745;BME280;38637;49.984;20.426;2023-10-09T02:15:02;100147.09;;;5.89;82.03
52745;BME280;38637;49.984;20.426;2023-10-09T02:17:40;100142.72;;;5.88;81.26
52745;BME280;38637;49.984;20.426;2023-10-09T02:20:17;100133.97;;;5.86;81.82
52745;BME280;38637;49.984;20.426;2023-10-09T02:22:53;100135.44;;;5.82;82.15
52745;BME280;38637;49.984;20.426;2023-10-09T02:25:19;100135.66;;;5.81;82.17
52745;BME280;38637;49.984;20.426;2023-10-09T02:27:46;100139.84;;;5.76;82.32
52745;BME280;38637;49.984;20.426;2023-10-09T02:30:19;100134.44;;;5.70;81.92
52745;BME280;38637;49.984;20.426;2023-10-09T02:32:52;100135.03;;;5.65;82.19
52745;BME280;38637;49.984;20.426;2023-10-09T02:35:19;100119.22;;;5.56;83.07
52745;BME280;38637;49.984;20.426;2023-10-09T02:37:54;100136.94;;;5.58;83.73
52745;BME280;38637;49.984;20.426;2023-10-09T02:40:19;100131.94;;;5.55;84.22
52745;BME280;38637;49.984;20.426;2023-10-09T02:42:50;100106.50;;;5.56;84.54
52745;BME280;38637;49.984;20.426;2023-10-09T02:45:15;100095.06;;;5.61;85.10
52745;BME280;38637;49.984;20.426;2023-10-09T02:47:43;100088.16;;;5.65;84.71
52745;BME280;38637;49.984;20.426;2023-10-09T02:50:08;100101.50;;;5.66;84.92
52745;BME280;38637;49.984;20.426;2023-10-09T02:52:34;100110.03;;;5.70;84.76
52745;BME280;38637;49.984;20.426;2023-10-09T02:55:06;100097.09;;;5.72;84.40
52745;BME280;38637;49.984;20.426;2023-10-09T02:57:37;100078.97;;;5.72;84.70
52745;BME280;38637;49.984;20.426;2023-10-09T03:00:05;100075.63;;;5.77;85.02
52745;BME280;38637;49.984;20.426;2023-10-09T03:02:44;100065.81;;;5.83;85.07
52745;BME280;38637;49.984;20.426;2023-10-09T03:05:15;100057.03;;;5.87;85.22
52745;BME280;38637;49.984;20.426;2023-10-09T03:07:40;100066.84;;;5.88;84.96
52745;BME280;38637;49.984;20.426;2023-10-09T03:10:07;100072.25;;;5.88;85.20
52745;BME280;38637;49.984;20.426;2023-10-09T03:12:35;100088.28;;;5.90;85.56
52745;BME280;38637;49.984;20.426;2023-10-09T03:15:00;100084.75;;;5.89;85.52
52745;BME280;38637;49.984;20.426;2023-10-09T03:17:27;100071.84;;;5.91;85.51
52745;BME280;38637;49.984;20.426;2023-10-09T03:19:53;100065.59;;;5.91;85.21
52745;BME280;38637;49.984;20.426;2023-10-09T03:22:19;100066.63;;;5.90;85.82
52745;BME280;38637;49.984;20.426;2023-10-09T03:24:45;100061.81;;;5.92;85.83
52745;BME280;38637;49.984;20.426;2023-10-09T03:27:10;100062.25;;;5.95;86.02
52745;BME280;38637;49.984;20.426;2023-10-09T03:29:36;100068.06;;;5.99;86.48
52745;BME280;38637;49.984;20.426;2023-10-09T03:32:02;100073.91;;;5.96;86.68
52745;BME280;38637;49.984;20.426;2023-10-09T03:34:28;100071.44;;;5.94;87.39
52745;BME280;38637;49.984;20.426;2023-10-09T03:36:56;100058.72;;;5.88;87.17
52745;BME280;38637;49.984;20.426;2023-10-09T03:39:32;100076.44;;;5.97;87.60
52745;BME280;38637;49.984;20.426;2023-10-09T03:42:07;100071.59;;;5.99;87.22
52745;BME280;38637;49.984;20.426;2023-10-09T03:44:37;100068.47;;;6.03;87.02
52745;BME280;38637;49.984;20.426;2023-10-09T03:47:06;100050.78;;;6.00;87.04
52745;BME280;38637;49.984;20.426;2023-10-09T03:49:35;100061.97;;;6.10;87.46
52745;BME280;38637;49.984;20.426;2023-10-09T03:52:04;100072.00;;;6.10;87.13
52745;BME280;38637;49.984;20.426;2023-10-09T03:54:31;100072.41;;;6.13;87.17
52745;BME280;38637;49.984;20.426;2023-10-09T03:56:57;100052.56;;;6.19;87.44
52745;BME280;38637;49.984;20.426;2023-10-09T03:59:24;100043.56;;;6.26;87.27
52745;BME280;38637;49.984;20.426;2023-10-09T04:01:55;100032.91;;;6.31;87.27
52745;BME280;38637;49.984;20.426;2023-10-09T04:04:22;100036.59;;;6.36;86.85
52745;BME280;38637;49.984;20.426;2023-10-09T04:06:48;100038.44;;;6.42;87.40
52745;BME280;38637;49.984;20.426;2023-10-09T04:09:16;100036.72;;;6.48;86.99
52745;BME280;38637;49.984;20.426;2023-10-09T04:11:48;100029.84;;;6.52;86.61
52745;BME280;38637;49.984;20.426;2023-10-09T04:14:22;100013.94;;;6.56;86.80
52745;BME280;38637;49.984;20.426;2023-10-09T04:16:51;100006.19;;;6.59;86.68
52745;BME280;38637;49.984;20.426;2023-10-09T04:19:17;100002.22;;;6.62;86.78
52745;BME280;38637;49.984;20.426;2023-10-09T04:21:47;99995.09;;;6.67;86.51
52745;BME280;38637;49.984;20.426;2023-10-09T04:24:13;99993.78;;;6.70;86.72
52745;BME280;38637;49.984;20.426;2023-10-09T04:26:43;99991.47;;;6.74;86.77
52745;BME280;38637;49.984;20.426;2023-10-09T04:31:49;99992.25;;;6.81;86.54
52745;BME280;38637;49.984;20.426;2023-10-09T04:34:19;99988.28;;;6.83;86.41
52745;BME280;38637;49.984;20.426;2023-10-09T04:36:51;99997.44;;;6.82;85.96
52745;BME280;38637;49.984;20.426;2023-10-09T04:39:25;100010.81;;;6.84;85.77
52745;BME280;38637;49.984;20.426;2023-10-09T04:41:59;100001.00;;;6.83;85.19
52745;BME280;38637;49.984;20.426;2023-10-09T04:44:43;99986.59;;;6.82;85.15
52745;BME280;38637;49.984;20.426;2023-10-09T04:47:30;99984.94;;;6.81;84.68
52745;BME280;38637;49.984;20.426;2023-10-09T04:50:05;99986.81;;;6.81;84.78
52745;BME280;38637;49.984;20.426;2023-10-09T04:53:00;99976.34;;;6.84;85.33
52745;BME280;38637;49.984;20.426;2023-10-09T04:55:41;99973.81;;;6.89;85.45
52745;BME280;38637;49.984;20.426;2023-10-09T04:58:09;99967.69;;;6.94;85.21
52745;BME280;38637;49.984;20.426;2023-10-09T05:00:38;99965.59;;;6.96;84.85
52745;BME280;38637;49.984;20.426;2023-10-09T05:03:07;99967.25;;;6.97;85.27
52745;BME280;38637;49.984;20.426;2023-10-09T05:05:36;99967.69;;;6.94;85.16
52745;BME280;38637;49.984;20.426;2023-10-09T05:08:13;99959.16;;;6.90;84.67
52745;BME280;38637;49.984;20.426;2023-10-09T05:10:52;99957.16;;;6.79;85.29
52745;BME280;38637;49.984;20.426;2023-10-09T05:16:05;99964.94;;;6.76;85.52
52745;BME280;38637;49.984;20.426;2023-10-09T05:18:30;99957.16;;;6.79;85.58
52745;BME280;38637;49.984;20.426;2023-10-09T05:21:03;99955.31;;;6.80;85.67
52745;BME280;38637;49.984;20.426;2023-10-09T05:23:37;99955.75;;;6.77;86.17
52745;BME280;38637;49.984;20.426;2023-10-09T05:26:09;99957.41;;;6.78;86.20
52745;BME280;38637;49.984;20.426;2023-10-09T05:28:53;99949.88;;;6.80;85.91
52745;BME280;38637;49.984;20.426;2023-10-09T05:31:23;99935.31;;;6.74;86.38
52745;BME280;38637;49.984;20.426;2023-10-09T05:34:07;99943.13;;;6.89;86.99
52745;BME280;38637;49.984;20.426;2023-10-09T05:36:33;99929.69;;;6.94;86.70
52745;BME280;38637;49.984;20.426;2023-10-09T05:39:00;99930.66;;;7.00;86.30
52745;BME280;38637;49.984;20.426;2023-10-09T05:41:55;99929.41;;;7.02;86.36
52745;BME280;38637;49.984;20.426;2023-10-09T05:44:33;99931.59;;;7.12;86.31
52745;BME280;38637;49.984;20.426;2023-10-09T05:47:16;99932.56;;;7.18;86.35
52745;BME280;38637;49.984;20.426;2023-10-09T05:49:56;99924.81;;;7.21;85.58
52745;BME280;38637;49.984;20.426;2023-10-09T05:52:34;99920.66;;;7.19;85.51
52745;BME280;38637;49.984;20.426;2023-10-09T05:55:06;99917.34;;;7.17;85.65
52745;BME280;38637;49.984;20.426;2023-10-09T05:57:40;99894.03;;;7.09;85.55
52745;BME280;38637;49.984;20.426;2023-10-09T06:00:27;99894.47;;;7.06;86.31
52745;BME280;38637;49.984;20.426;2023-10-09T06:03:11;99881.34;;;7.03;86.61
52745;BME280;38637;49.984;20.426;2023-10-09T06:05:46;99869.66;;;7.02;86.35
52745;BME280;38637;49.984;20.426;2023-10-09T06:08:31;99877.97;;;7.07;86.25
52745;BME280;38637;49.984;20.426;2023-10-09T06:11:09;99874.09;;;7.15;86.20
52745;BME280;38637;49.984;20.426;2023-10-09T06:13:54;99868.59;;;7.22;86.46
52745;BME280;38637;49.984;20.426;2023-10-09T06:16:35;99873.94;;;7.28;86.70
52745;BME280;38637;49.984;20.426;2023-10-09T06:19:07;99868.06;;;7.31;86.59
52745;BME280;38637;49.984;20.426;2023-10-09T06:21:36;99865.72;;;7.35;86.85
52745;BME280;38637;49.984;20.426;2023-10-09T06:24:25;99875.28;;;7.37;87.05
52745;BME280;38637;49.984;20.426;2023-10-09T06:27:20;99885.94;;;7.39;87.28
52745;BME280;38637;49.984;20.426;2023-10-09T06:29:55;99884.41;;;7.43;87.13
52745;BME280;38637;49.984;20.426;2023-10-09T06:32:40;99887.97;;;7.44;87.44
52745;BME280;38637;49.984;20.426;2023-10-09T06:35:33;99884.34;;;7.50;87.56
52745;BME280;38637;49.984;20.426;2023-10-09T06:38:01;99893.69;;;7.54;87.89
52745;BME280;38637;49.984;20.426;2023-10-09T06:43:13;99883.56;;;7.61;87.75
52745;BME280;38637;49.984;20.426;2023-10-09T06:45:51;99889.38;;;7.65;88.14
52745;BME280;38637;49.984;20.426;2023-10-09T06:48:26;99885.97;;;7.69;88.03
52745;BME280;38637;49.984;20.426;2023-10-09T06:51:06;99887.16;;;7.73;87.85
52745;BME280;38637;49.984;20.426;2023-10-09T06:53:50;99890.59;;;7.80;87.95
52745;BME280;38637;49.984;20.426;2023-10-09T06:58:50;99893.63;;;7.91;88.46
52745;BME280;38637;49.984;20.426;2023-10-09T07:01:20;99896.47;;;7.96;88.41
52745;BME280;38637;49.984;20.426;2023-10-09T07:04:08;99900.03;;;7.96;88.44
52745;BME280;38637;49.984;20.426;2023-10-09T07:07:06;99894.22;;;7.93;88.75
52745;BME280;38637;49.984;20.426;2023-10-09T07:09:49;99892.09;;;7.95;88.86
52745;BME280;38637;49.984;20.426;2023-10-09T07:12:33;99885.59;;;7.96;88.73
52745;BME280;38637;49.984;20.426;2023-10-09T07:15:02;99877.44;;;7.96;88.49
52745;BME280;38637;49.984;20.426;2023-10-09T07:17:30;99875.78;;;7.95;87.48
52745;BME280;38637;49.984;20.426;2023-10-09T07:19:58;99863.84;;;7.96;87.51
52745;BME280;38637;49.984;20.426;2023-10-09T07:22:35;99868.09;;;8.03;87.68
52745;BME280;38637;49.984;20.426;2023-10-09T07:25:05;99881.38;;;8.12;87.90
52745;BME280;38637;49.984;20.426;2023-10-09T07:27:40;99889.44;;;8.18;88.02
52745;BME280;38637;49.984;20.426;2023-10-09T07:30:13;99905.41;;;8.15;87.78
52745;BME280;38637;49.984;20.426;2023-10-09T07:32:58;99915.53;;;8.07;88.56
52745;BME280;38637;49.984;20.426;2023-10-09T07:35:56;99904.03;;;7.94;88.99
52745;BME280;38637;49.984;20.426;2023-10-09T07:38:25;99922.59;;;7.97;88.73
52745;BME280;38637;49.984;20.426;2023-10-09T07:41:01;99916.56;;;7.95;87.71
52745;BME280;38637;49.984;20.426;2023-10-09T07:43:34;99916.56;;;7.95;85.47
52745;BME280;38637;49.984;20.426;2023-10-09T07:46:10;99910.06;;;7.96;85.07
52745;BME280;38637;49.984;20.426;2023-10-09T07:48:55;99911.25;;;8.00;84.29
52745;BME280;38637;49.984;20.426;2023-10-09T07:51:22;99904.91;;;8.06;84.37
52745;BME280;38637;49.984;20.426;2023-10-09T07:53:51;99908.34;;;8.13;84.57
52745;BME280;38637;49.984;20.426;2023-10-09T07:56:23;99897.59;;;8.18;83.94
52745;BME280;38637;49.984;20.426;2023-10-09T07:58:49;99889.13;;;8.26;84.15
52745;BME280;38637;49.984;20.426;2023-10-09T08:01:15;99888.19;;;8.33;83.63
52745;BME280;38637;49.984;20.426;2023-10-09T08:03:46;99885.56;;;8.38;82.67
52745;BME280;38637;49.984;20.426;2023-10-09T08:06:12;99883.34;;;8.46;83.13
52745;BME280;38637;49.984;20.426;2023-10-09T08:08:57;99876.16;;;8.52;82.46
52745;BME280;38637;49.984;20.426;2023-10-09T08:11:31;99884.19;;;8.59;82.60
52745;BME280;38637;49.984;20.426;2023-10-09T08:14:09;99895.22;;;8.64;81.47
52745;BME280;38637;49.984;20.426;2023-10-09T08:16:54;99902.31;;;8.65;80.94
52745;BME280;38637;49.984;20.426;2023-10-09T08:19:37;99887.28;;;8.62;80.23
52745;BME280;38637;49.984;20.426;2023-10-09T08:22:17;99883.13;;;8.60;80.67
52745;BME280;38637;49.984;20.426;2023-10-09T08:25:03;99883.72;;;8.62;81.11
52745;BME280;38637;49.984;20.426;2023-10-09T08:27:29;99879.09;;;8.62;81.08
52745;BME280;38637;49.984;20.426;2023-10-09T08:30:13;99888.56;;;8.60;82.43
52745;BME280;38637;49.984;20.426;2023-10-09T08:32:51;99882.91;;;8.61;82.74
52745;BME280;38637;49.984;20.426;2023-10-09T08:35:38;99887.53;;;8.61;83.74
52745;BME280;38637;49.984;20.426;2023-10-09T08:38:17;99878.53;;;8.60;83.50
52745;BME280;38637;49.984;20.426;2023-10-09T08:40:49;99869.63;;;8.65;83.75
52745;BME280;38637;49.984;20.426;2023-10-09T08:43:18;99865.75;;;8.72;83.63
52745;BME280;38637;49.984;20.426;2023-10-09T08:45:48;99852.97;;;8.73;83.29
52745;BME280;38637;49.984;20.426;2023-10-09T08:48:14;99869.63;;;8.88;83.62
52745;BME280;38637;49.984;20.426;2023-10-09T08:50:44;99866.91;;;9.00;84.79
52745;BME280;38637;49.984;20.426;2023-10-09T08:53:13;99865.22;;;9.11;84.90
52745;BME280;38637;49.984;20.426;2023-10-09T08:55:40;99863.56;;;9.22;85.75
52745;BME280;38637;49.984;20.426;2023-10-09T08:58:06;99854.50;;;9.33;86.40
52745;BME280;38637;49.984;20.426;2023-10-09T09:00:55;99849.75;;;9.40;86.16
52745;BME280;38637;49.984;20.426;2023-10-09T09:03:23;99849.84;;;9.45;86.40
52745;BME280;38637;49.984;20.426;2023-10-09T09:06:00;99832.66;;;9.44;85.99
52745;BME280;38637;49.984;20.426;2023-10-09T09:08:30;99826.13;;;9.46;85.98
52745;BME280;38637;49.984;20.426;2023-10-09T09:14:01;99830.81;;;9.62;85.15
52745;BME280;38637;49.984;20.426;2023-10-09T09:16:43;99822.47;;;9.69;84.76
52745;BME280;38637;49.984;20.426;2023-10-09T09:19:13;99821.41;;;9.70;84.21
52745;BME280;38637;49.984;20.426;2023-10-09T09:21:50;99820.19;;;9.77;84.75
52745;BME280;38637;49.984;20.426;2023-10-09T09:24:20;99819.53;;;9.87;83.65
52745;BME280;38637;49.984;20.426;2023-10-09T09:26:56;99816.31;;;9.90;81.52
52745;BME280;38637;49.984;20.426;2023-10-09T09:32:03;99815.34;;;9.96;80.50
52745;BME280;38637;49.984;20.426;2023-10-09T09:34:53;99805.91;;;10.04;80.97
52745;BME280;38637;49.984;20.426;2023-10-09T09:37:23;99804.34;;;10.08;80.72
52745;BME280;38637;49.984;20.426;2023-10-09T09:39:55;99793.00;;;10.16;80.51
52745;BME280;38637;49.984;20.426;2023-10-09T09:42:23;99788.22;;;10.23;80.90
52745;BME280;38637;49.984;20.426;2023-10-09T09:44:53;99790.69;;;10.25;80.42
52745;BME280;38637;49.984;20.426;2023-10-09T09:47:19;99786.91;;;10.26;79.21
52745;BME280;38637;49.984;20.426;2023-10-09T09:49:55;99787.03;;;10.19;78.32
52745;BME280;38637;49.984;20.426;2023-10-09T09:52:36;99791.31;;;10.27;78.71
52745;BME280;38637;49.984;20.426;2023-10-09T09:55:08;99776.84;;;10.26;77.98
52745;BME280;38637;49.984;20.426;2023-10-09T09:57:48;99753.78;;;10.22;77.92
52745;BME280;38637;49.984;20.426;2023-10-09T10:00:18;99741.56;;;10.25;77.92
52745;BME280;38637;49.984;20.426;2023-10-09T10:03:20;99718.25;;;10.34;77.82
52745;BME280;38637;49.984;20.426;2023-10-09T10:05:48;99727.59;;;10.38;77.52
52745;BME280;38637;49.984;20.426;2023-10-09T10:08:17;99731.16;;;10.39;76.36
52745;BME280;38637;49.984;20.426;2023-10-09T10:10:46;99738.25;;;10.40;76.42
52745;BME280;38637;49.984;20.426;2023-10-09T10:16:10;99757.69;;;10.43;75.54
52745;BME280;38637;49.984;20.426;2023-10-09T10:18:53;99756.03;;;10.42;76.21
52745;BME280;38637;49.984;20.426;2023-10-09T10:21:24;99747.53;;;10.39;74.90
52745;BME280;38637;49.984;20.426;2023-10-09T10:23:56;99748.88;;;10.36;75.22
52745;BME280;38637;49.984;20.426;2023-10-09T10:26:31;99737.78;;;10.26;74.50
52745;BME280;38637;49.984;20.426;2023-10-09T10:29:16;99750.69;;;10.30;74.79
52745;BME280;38637;49.984;20.426;2023-10-09T10:32:03;99743.00;;;10.27;75.07
52745;BME280;38637;49.984;20.426;2023-10-09T10:37:11;99734.19;;;10.25;75.34
52745;BME280;38637;49.984;20.426;2023-10-09T10:39:49;99728.72;;;10.25;75.75
52745;BME280;38637;49.984;20.426;2023-10-09T10:42:14;99722.44;;;10.25;75.04
52745;BME280;38637;49.984;20.426;2023-10-09T10:45:03;99720.53;;;10.25;75.85
52745;BME280;38637;49.984;20.426;2023-10-09T10:47:49;99724.72;;;10.28;75.70
52745;BME280;38637;49.984;20.426;2023-10-09T10:50:17;99727.53;;;10.33;76.07
52745;BME280;38637;49.984;20.426;2023-10-09T10:53:14;99719.97;;;10.40;76.33
52745;BME280;38637;49.984;20.426;2023-10-09T10:55:55;99717.81;;;10.42;76.77
52745;BME280;38637;49.984;20.426;2023-10-09T10:58:43;99705.81;;;10.43;76.44
52745;BME280;38637;49.984;20.426;2023-10-09T11:01:36;99701.69;;;10.41;75.75
52745;BME280;38637;49.984;20.426;2023-10-09T11:04:17;99698.63;;;10.37;75.71
52745;BME280;38637;49.984;20.426;2023-10-09T11:06:56;99679.22;;;10.33;76.13
52745;BME280;38637;49.984;20.426;2023-10-09T11:09:26;99675.59;;;10.28;76.15
52745;BME280;38637;49.984;20.426;2023-10-09T11:12:04;99668.97;;;10.24;76.66
52745;BME280;38637;49.984;20.426;2023-10-09T11:14:48;99670.59;;;10.25;76.97
52745;BME280;38637;49.984;20.426;2023-10-09T11:17:35;99653.91;;;10.21;77.67
52745;BME280;38637;49.984;20.426;2023-10-09T11:20:03;99651.28;;;10.26;77.50
52745;BME280;38637;49.984;20.426;2023-10-09T11:22:55;99638.19;;;10.28;78.82
52745;BME280;38637;49.984;20.426;2023-10-09T11:25:36;99631.69;;;10.29;79.27
52745;BME280;38637;49.984;20.426;2023-10-09T11:28:23;99620.50;;;10.31;79.79
52745;BME280;38637;49.984;20.426;2023-10-09T11:31:10;99609.56;;;10.31;79.78
52745;BME280;38637;49.984;20.426;2023-10-09T11:33:49;99604.69;;;10.33;80.55
52745;BME280;38637;49.984;20.426;2023-10-09T11:36:20;99606.59;;;10.32;80.50
52745;BME280;38637;49.984;20.426;2023-10-09T11:38:56;99611.25;;;10.32;80.83
52745;BME280;38637;49.984;20.426;2023-10-09T11:41:42;99602.38;;;10.25;81.40
52745;BME280;38637;49.984;20.426;2023-10-09T11:44:08;99601.66;;;10.29;81.75
52745;BME280;38637;49.984;20.426;2023-10-09T11:47:02;99603.06;;;10.32;81.86
52745;BME280;38637;49.984;20.426;2023-10-09T11:49:56;99595.38;;;10.29;81.78
52745;BME280;38637;49.984;20.426;2023-10-09T11:52:57;99594.19;;;10.25;82.62
52745;BME280;38637;49.984;20.426;2023-10-09T11:55:45;99583.72;;;10.17;82.48
52745;BME280;38637;49.984;20.426;2023-10-09T11:58:14;99585.28;;;10.12;82.49
52745;BME280;38637;49.984;20.426;2023-10-09T12:00:40;99579.00;;;10.12;82.93
52745;BME280;38637;49.984;20.426;2023-10-09T12:03:11;99567.78;;;10.08;83.43
52745;BME280;38637;49.984;20.426;2023-10-09T12:05:38;99572.09;;;10.04;83.47
52745;BME280;38637;49.984;20.426;2023-10-09T12:08:07;99557.25;;;9.95;83.98
52745;BME280;38637;49.984;20.426;2023-10-09T12:10:34;99568.72;;;9.97;83.29
52745;BME280;38637;49.984;20.426;2023-10-09T12:12:59;99575.00;;;9.98;83.13
52745;BME280;38637;49.984;20.426;2023-10-09T12:15:25;99572.78;;;9.95;83.54
52745;BME280;38637;49.984;20.426;2023-10-09T12:17:57;99568.41;;;9.94;83.59
52745;BME280;38637;49.984;20.426;2023-10-09T12:20:23;99564.84;;;9.93;83.11
52745;BME280;38637;49.984;20.426;2023-10-09T12:23:06;99563.38;;;9.85;83.25
52745;BME280;38637;49.984;20.426;2023-10-09T12:25:33;99567.78;;;9.86;83.22
52745;BME280;38637;49.984;20.426;2023-10-09T12:28:01;99572.16;;;9.87;83.32
52745;BME280;38637;49.984;20.426;2023-10-09T12:30:30;99574.63;;;9.89;83.49
52745;BME280;38637;49.984;20.426;2023-10-09T12:32:57;99562.06;;;9.88;83.29
52745;BME280;38637;49.984;20.426;2023-10-09T12:35:26;99567.28;;;9.89;83.51
52745;BME280;38637;49.984;20.426;2023-10-09T12:37:52;99557.38;;;9.83;83.70
52745;BME280;38637;49.984;20.426;2023-10-09T12:40:20;99565.06;;;9.86;83.00
52745;BME280;38637;49.984;20.426;2023-10-09T12:42:52;99560.66;;;9.85;83.61
52745;BME280;38637;49.984;20.426;2023-10-09T12:45:18;99548.38;;;9.83;83.54
52745;BME280;38637;49.984;20.426;2023-10-09T12:47:50;99549.69;;;9.80;84.18
52745;BME280;38637;49.984;20.426;2023-10-09T12:50:16;99546.97;;;9.80;84.48
52745;BME280;38637;49.984;20.426;2023-10-09T12:52:52;99548.38;;;9.83;84.59
52745;BME280;38637;49.984;20.426;2023-10-09T12:55:17;99542.66;;;9.84;84.88
52745;BME280;38637;49.984;20.426;2023-10-09T12:57:44;99545.38;;;9.84;84.60
52745;BME280;38637;49.984;20.426;2023-10-09T13:00:10;99547.88;;;9.86;85.03
52745;BME280;38637;49.984;20.426;2023-10-09T13:02:36;99537.19;;;9.84;85.27
52745;BME280;38637;49.984;20.426;2023-10-09T13:05:01;99536.09;;;9.85;85.14
52745;BME280;38637;49.984;20.426;2023-10-09T13:07:30;99534.47;;;9.84;85.22
52745;BME280;38637;49.984;20.426;2023-10-09T13:09:55;99540.19;;;9.83;86.16
52745;BME280;38637;49.984;20.426;2023-10-09T13:12:40;99540.69;;;9.80;85.71
52745;BME280;38637;49.984;20.426;2023-10-09T13:15:09;99531.66;;;9.79;85.71
52745;BME280;38637;49.984;20.426;2023-10-09T13:17:38;99532.50;;;9.80;85.91
52745;BME280;38637;49.984;20.426;2023-10-09T13:20:04;99527.06;;;9.80;86.29
52745;BME280;38637;49.984;20.426;2023-10-09T13:22:40;99534.16;;;9.81;86.18
52745;BME280;38637;49.984;20.426;2023-10-09T13:25:07;99529.50;;;9.81;86.52
52745;BME280;38637;49.984;20.426;2023-10-09T13:27:39;99521.59;;;9.80;87.01
52745;BME280;38637;49.984;20.426;2023-10-09T13:30:05;99513.16;;;9.81;87.77
52745;BME280;38637;49.984;20.426;2023-10-09T13:32:33;99521.59;;;9.80;87.64
52745;BME280;38637;49.984;20.426;2023-10-09T13:35:02;99527.28;;;9.78;87.55
52745;BME280;38637;49.984;20.426;2023-10-09T13:37:31;99520.75;;;9.79;87.69
52745;BME280;38637;49.984;20.426;2023-10-09T13:40:03;99519.94;;;9.79;87.56
52745;BME280;38637;49.984;20.426;2023-10-09T13:42:34;99516.38;;;9.78;87.60
52745;BME280;38637;49.984;20.426;2023-10-09T13:45:02;99511.19;;;9.77;87.66
52745;BME280;38637;49.984;20.426;2023-10-09T13:47:30;99507.63;;;9.76;87.43
52745;BME280;38637;49.984;20.426;2023-10-09T13:49:57;99497.81;;;9.75;87.48